createdAt,value
2022-11-30T00:00:22.751Z,76.73
2022-11-30T00:02:53.971Z,77.08
2022-11-30T00:05:24.374Z,77.44
2022-11-30T00:07:54.588Z,76.40
2022-11-30T00:10:22.508Z,76.22
2022-11-30T00:12:50.736Z,76.84
2022-11-30T00:15:18.571Z,76.44
2022-11-30T00:17:46.424Z,75.94
2022-11-30T00:20:14.802Z,75.75
2022-11-30T00:22:44.013Z,75.09
2022-11-30T00:25:11.716Z,75.99
2022-11-30T00:27:39.493Z,76.52
2022-11-30T00:30:07.898Z,77.19
2022-11-30T00:32:35.676Z,76.67
2022-11-30T00:35:03.466Z,78.10
2022-11-30T00:37:31.850Z,77.05
2022-11-30T00:40:01.085Z,77.02
2022-11-30T00:42:28.832Z,77.21
2022-11-30T00:44:56.547Z,76.69
2022-11-30T00:47:24.336Z,77.70
2022-11-30T00:49:52.071Z,76.92
2022-11-30T00:52:19.815Z,76.67
2022-11-30T00:54:47.769Z,78.02
2022-11-30T00:57:17.134Z,76.30
2022-11-30T00:59:44.892Z,76.88
2022-11-30T01:02:12.774Z,76.80
2022-11-30T01:04:40.534Z,75.67
2022-11-30T01:07:08.361Z,74.75
2022-11-30T01:09:36.103Z,76.20
2022-11-30T01:12:03.869Z,76.24
2022-11-30T01:14:32.983Z,76.12
2022-11-30T01:17:00.831Z,75.71
2022-11-30T01:19:28.603Z,76.44
2022-11-30T01:21:56.289Z,75.96
2022-11-30T01:24:23.978Z,76.14
2022-11-30T01:26:51.647Z,76.93
2022-11-30T01:29:19.329Z,77.42
2022-11-30T01:31:48.368Z,77.64
2022-11-30T01:34:16.062Z,76.79
2022-11-30T01:36:44.055Z,75.57
2022-11-30T01:39:11.919Z,76.80
2022-11-30T01:41:39.565Z,75.04
2022-11-30T01:44:27.231Z,77.03
2022-11-30T01:46:58.996Z,76.72
2022-11-30T01:49:29.626Z,75.68
2022-11-30T01:51:59.800Z,75.28
2022-11-30T01:54:30.980Z,74.42
2022-11-30T01:57:01.228Z,75.16
2022-11-30T01:59:29.181Z,75.84
2022-11-30T02:01:58.124Z,75.73
2022-11-30T02:04:27.398Z,75.06
2022-11-30T02:06:55.180Z,75.03
2022-11-30T02:09:23.597Z,74.45
2022-11-30T02:11:51.740Z,75.37
2022-11-30T02:14:24.649Z,73.97
2022-11-30T02:16:57.387Z,74.44
2022-11-30T02:19:42.388Z,75.06
2022-11-30T02:22:17.573Z,75.33
2022-11-30T02:24:51.876Z,74.69
2022-11-30T02:27:23.999Z,74.11
2022-11-30T02:29:56.217Z,74.79
2022-11-30T02:32:26.837Z,75.00
2022-11-30T02:34:56.155Z,74.86
2022-11-30T02:37:25.177Z,74.92
2022-11-30T02:39:52.791Z,75.69
2022-11-30T02:42:20.423Z,75.26
2022-11-30T02:44:49.304Z,74.44
2022-11-30T02:47:22.385Z,75.14
2022-11-30T02:49:53.359Z,75.96
2022-11-30T02:52:23.293Z,76.03
2022-11-30T02:54:51.197Z,75.86
2022-11-30T02:57:18.881Z,75.65
2022-11-30T02:59:46.653Z,75.07
2022-11-30T03:02:14.457Z,76.17
2022-11-30T03:04:43.547Z,76.58
2022-11-30T03:07:11.169Z,76.39
2022-11-30T03:09:38.805Z,76.21
2022-11-30T03:12:06.654Z,75.86
2022-11-30T03:14:34.327Z,77.34
2022-11-30T03:17:02.042Z,76.73
2022-11-30T03:19:29.658Z,75.85
2022-11-30T03:21:58.652Z,76.53
2022-11-30T03:24:26.353Z,76.90
2022-11-30T03:26:54.024Z,75.32
2022-11-30T03:29:21.678Z,73.50
2022-11-30T03:31:49.331Z,73.64
2022-11-30T03:34:16.925Z,76.71
2022-11-30T03:36:44.575Z,77.00
2022-11-30T03:39:13.618Z,76.29
2022-11-30T03:41:41.273Z,75.36
2022-11-30T03:44:08.931Z,75.54
2022-11-30T03:46:36.619Z,76.56
2022-11-30T03:49:04.306Z,76.34
2022-11-30T03:51:31.941Z,75.75
2022-11-30T03:53:59.596Z,74.87
2022-11-30T03:56:28.617Z,74.50
2022-11-30T03:58:56.299Z,75.03
2022-11-30T04:01:24.076Z,74.15
2022-11-30T04:03:52.237Z,74.71
2022-11-30T04:06:20.233Z,74.76
2022-11-30T04:08:48.296Z,75.36
2022-11-30T04:11:16.343Z,76.50
2022-11-30T04:13:45.373Z,75.54
2022-11-30T04:16:13.046Z,73.76
2022-11-30T04:18:40.731Z,73.49
2022-11-30T04:21:08.949Z,75.00
2022-11-30T04:23:37.673Z,73.82
2022-11-30T04:26:06.256Z,74.22
2022-11-30T04:28:34.240Z,73.43
2022-11-30T04:31:03.693Z,74.83
2022-11-30T04:33:31.555Z,74.79
2022-11-30T04:36:00.132Z,75.88
2022-11-30T04:38:27.864Z,74.92
2022-11-30T04:40:55.584Z,75.29
2022-11-30T04:43:23.332Z,75.61
2022-11-30T04:45:50.973Z,75.22
2022-11-30T04:48:20.123Z,75.86
2022-11-30T04:50:47.776Z,75.74
2022-11-30T04:53:15.482Z,76.30
2022-11-30T04:55:43.110Z,75.69
2022-11-30T04:58:10.726Z,75.25
2022-11-30T05:00:38.813Z,75.20
2022-11-30T05:03:06.495Z,76.46
2022-11-30T05:05:35.542Z,76.23
2022-11-30T05:08:03.267Z,75.50
2022-11-30T05:10:33.720Z,74.21
2022-11-30T05:13:01.421Z,75.40
2022-11-30T05:15:29.013Z,74.31
2022-11-30T05:17:59.235Z,75.23
2022-11-30T05:20:26.911Z,74.09
2022-11-30T05:22:55.994Z,74.75
2022-11-30T05:25:23.652Z,74.24
2022-11-30T05:27:51.272Z,73.72
2022-11-30T05:30:19.048Z,74.31
2022-11-30T05:32:46.705Z,73.84
2022-11-30T05:35:14.387Z,73.90
2022-11-30T05:37:42.063Z,74.70
2022-11-30T05:40:11.824Z,74.80
2022-11-30T05:42:39.464Z,75.04
2022-11-30T05:45:07.509Z,75.00
2022-11-30T05:47:35.180Z,75.36
2022-11-30T05:50:02.849Z,73.52
2022-11-30T05:52:30.791Z,74.12
2022-11-30T05:54:59.413Z,74.74
2022-11-30T05:57:28.455Z,75.37
2022-11-30T05:59:56.118Z,74.95
2022-11-30T06:02:28.005Z,75.16
2022-11-30T06:04:56.062Z,74.05
2022-11-30T06:07:23.771Z,73.73
2022-11-30T06:09:51.706Z,74.72
2022-11-30T06:12:19.384Z,74.57
2022-11-30T06:14:50.787Z,75.22
2022-11-30T06:17:18.604Z,74.21
2022-11-30T06:19:46.269Z,74.01
2022-11-30T06:22:13.867Z,73.60
2022-11-30T06:24:41.508Z,73.57
2022-11-30T06:27:09.129Z,73.42
2022-11-30T06:29:36.763Z,73.73
2022-11-30T06:32:07.681Z,73.96
2022-11-30T06:34:35.322Z,73.14
2022-11-30T06:37:02.981Z,74.24
2022-11-30T06:39:57.690Z,74.67
2022-11-30T06:42:19.646Z,74.37
2022-11-30T06:44:48.696Z,74.36
2022-11-30T06:47:17.900Z,73.75
2022-11-30T06:49:45.514Z,73.64
2022-11-30T06:52:13.319Z,72.67
2022-11-30T06:54:41.016Z,72.21
2022-11-30T06:57:08.624Z,74.29
2022-11-30T06:59:36.865Z,74.30
2022-11-30T07:02:09.639Z,74.43
2022-11-30T07:04:40.851Z,73.25
2022-11-30T07:07:08.861Z,74.71
2022-11-30T07:09:36.571Z,73.95
2022-11-30T07:12:05.100Z,74.17
2022-11-30T07:14:32.743Z,74.68
2022-11-30T07:17:04.557Z,75.21
2022-11-30T07:19:32.784Z,74.69
2022-11-30T07:22:01.851Z,73.99
2022-11-30T07:24:47.049Z,72.26
2022-11-30T07:27:14.944Z,72.56
2022-11-30T07:29:42.609Z,72.25
2022-11-30T07:32:10.313Z,71.51
2022-11-30T07:34:37.969Z,72.25
2022-11-30T07:37:06.979Z,71.69
2022-11-30T07:39:34.619Z,71.68
2022-11-30T07:42:02.389Z,71.97
2022-11-30T07:44:30.045Z,70.95
2022-11-30T07:46:57.681Z,70.86
2022-11-30T07:49:25.352Z,71.29
2022-11-30T07:51:53.029Z,70.78
2022-11-30T07:54:22.928Z,69.65
2022-11-30T07:56:50.566Z,70.22
2022-11-30T07:59:18.347Z,71.93
2022-11-30T08:01:46.164Z,69.97
2022-11-30T08:04:14.693Z,69.39
2022-11-30T08:06:42.496Z,70.25
2022-11-30T08:09:17.832Z,70.24
2022-11-30T08:11:49.481Z,69.85
2022-11-30T08:14:17.191Z,70.41
2022-11-30T08:16:44.917Z,71.19
2022-11-30T08:19:12.815Z,70.30
2022-11-30T08:21:40.459Z,70.29
2022-11-30T08:24:08.244Z,69.18
2022-11-30T08:26:35.968Z,69.59
2022-11-30T08:29:04.992Z,68.75
2022-11-30T08:31:33.522Z,69.10
2022-11-30T08:34:01.813Z,69.75
2022-11-30T08:36:30.716Z,68.98
2022-11-30T08:38:58.800Z,69.05
2022-11-30T08:41:27.022Z,68.61
2022-11-30T08:43:55.066Z,69.92
2022-11-30T08:46:50.416Z,69.99
2022-11-30T08:49:21.901Z,69.83
2022-11-30T08:52:16.486Z,68.32
2022-11-30T08:54:39.492Z,69.82
2022-11-30T08:57:07.137Z,69.68
2022-11-30T08:59:34.770Z,70.45
2022-11-30T09:02:03.818Z,70.79
2022-11-30T09:04:31.467Z,70.51
2022-11-30T09:07:00.883Z,71.26
2022-11-30T09:09:28.762Z,71.02
2022-11-30T09:11:56.401Z,70.42
2022-11-30T09:14:24.072Z,69.45
2022-11-30T09:16:51.726Z,70.54
2022-11-30T09:19:20.834Z,69.09
2022-11-30T09:21:52.001Z,68.96
2022-11-30T09:24:20.560Z,69.48
2022-11-30T09:26:48.364Z,69.42
2022-11-30T09:29:16.025Z,70.39
2022-11-30T09:31:43.647Z,70.40
2022-11-30T09:34:12.320Z,69.27
2022-11-30T09:36:41.455Z,69.04
2022-11-30T09:39:10.783Z,68.66
2022-11-30T09:41:47.421Z,68.89
2022-11-30T09:44:22.400Z,69.63
2022-11-30T09:46:51.785Z,69.43
2022-11-30T09:49:21.907Z,70.54
2022-11-30T09:51:52.511Z,69.68
2022-11-30T09:54:22.106Z,68.75
2022-11-30T09:56:50.820Z,67.91
2022-11-30T09:59:20.504Z,67.60
2022-11-30T10:01:56.390Z,67.75
2022-11-30T10:04:25.399Z,67.58
2022-11-30T10:07:01.194Z,66.18
2022-11-30T10:09:33.691Z,66.14
2022-11-30T10:12:03.226Z,65.50
2022-11-30T10:14:39.507Z,68.25
2022-11-30T10:17:13.811Z,68.92
2022-11-30T10:19:48.946Z,67.73
2022-11-30T10:22:23.659Z,67.27
2022-11-30T10:25:07.206Z,65.93
2022-11-30T10:27:43.003Z,65.54
2022-11-30T10:30:14.344Z,66.13
2022-11-30T10:32:44.004Z,64.81
2022-11-30T10:35:18.505Z,64.16
2022-11-30T10:37:48.234Z,64.47
2022-11-30T10:40:18.511Z,65.86
2022-11-30T10:42:47.801Z,65.00
2022-11-30T10:45:18.428Z,67.34
2022-11-30T10:47:48.056Z,65.83
2022-11-30T10:50:16.904Z,65.52
2022-11-30T10:52:46.404Z,65.54
2022-11-30T10:55:18.909Z,65.49
2022-11-30T10:57:48.023Z,64.78
2022-11-30T11:00:16.606Z,64.52
2022-11-30T11:02:46.033Z,64.58
2022-11-30T11:05:15.859Z,64.19
2022-11-30T11:07:49.201Z,64.36
2022-11-30T11:10:19.318Z,66.05
2022-11-30T11:12:48.305Z,67.22
2022-11-30T11:15:19.098Z,66.31
2022-11-30T11:17:47.201Z,66.83
2022-11-30T11:20:35.067Z,66.91
2022-11-30T11:23:03.017Z,66.19
2022-11-30T11:25:35.022Z,65.17
2022-11-30T11:28:05.683Z,64.78
2022-11-30T11:30:33.579Z,65.17
2022-11-30T11:33:02.496Z,64.37
2022-11-30T11:35:37.378Z,64.99
2022-11-30T11:38:05.527Z,64.29
2022-11-30T11:40:34.763Z,64.65
2022-11-30T11:43:04.205Z,64.90
2022-11-30T11:45:36.981Z,65.77
2022-11-30T11:48:05.838Z,66.04
2022-11-30T11:53:25.870Z,65.59
2022-11-30T11:55:57.447Z,66.89
2022-11-30T11:58:33.968Z,66.17
2022-11-30T12:01:31.683Z,66.52
2022-11-30T12:03:59.912Z,65.57
2022-11-30T12:06:27.754Z,65.69
2022-11-30T12:08:57.618Z,65.74
2022-11-30T12:11:30.123Z,65.30
2022-11-30T12:13:57.760Z,65.45
2022-11-30T12:16:32.903Z,64.23
2022-11-30T12:19:03.913Z,64.82
2022-11-30T12:21:39.875Z,65.16
2022-11-30T12:24:20.333Z,65.89
2022-11-30T12:26:52.425Z,65.24
2022-11-30T12:29:36.126Z,66.09
2022-11-30T12:32:11.365Z,65.19
2022-11-30T12:34:47.197Z,65.30
2022-11-30T12:37:18.070Z,64.56
2022-11-30T12:39:51.022Z,64.96
2022-11-30T12:42:25.432Z,65.45
2022-11-30T12:44:57.765Z,64.05
2022-11-30T12:47:36.806Z,65.15
2022-11-30T12:50:12.412Z,66.15
2022-11-30T12:52:45.296Z,67.41
2022-11-30T12:55:20.906Z,66.01
2022-11-30T12:57:56.482Z,66.47
2022-11-30T13:00:25.201Z,66.95
2022-11-30T13:03:01.700Z,66.26
2022-11-30T13:05:32.733Z,64.92
2022-11-30T13:08:05.549Z,65.40
2022-11-30T13:10:38.949Z,66.13
2022-11-30T13:13:13.248Z,67.18
2022-11-30T13:15:41.720Z,68.74
2022-11-30T13:18:12.438Z,67.89
2022-11-30T13:20:43.764Z,66.68
2022-11-30T13:23:15.159Z,67.14
2022-11-30T13:28:42.889Z,66.68
2022-11-30T13:31:15.434Z,67.45
2022-11-30T13:33:48.243Z,67.33
2022-11-30T13:36:23.128Z,67.36
2022-11-30T13:39:05.761Z,67.07
2022-11-30T13:41:33.579Z,68.12
2022-11-30T13:44:03.140Z,67.57
2022-11-30T13:46:31.223Z,68.19
2022-11-30T13:49:11.396Z,69.12
2022-11-30T13:51:40.367Z,67.84
2022-11-30T13:54:27.641Z,67.91
2022-11-30T13:56:55.990Z,69.09
2022-11-30T13:59:36.255Z,68.24
2022-11-30T14:02:22.410Z,71.43
2022-11-30T14:04:50.387Z,70.79
2022-11-30T14:07:35.041Z,70.14
2022-11-30T14:10:02.819Z,69.92
2022-11-30T14:12:46.983Z,68.71
2022-11-30T14:15:31.582Z,70.12
2022-11-30T14:17:59.839Z,71.49
2022-11-30T14:20:37.591Z,70.39
2022-11-30T14:23:06.102Z,70.21
2022-11-30T14:25:35.287Z,71.14
2022-11-30T14:28:06.160Z,72.70
2022-11-30T14:30:35.397Z,73.00
2022-11-30T14:33:05.876Z,74.20
2022-11-30T14:35:34.239Z,74.95
2022-11-30T14:38:03.684Z,73.82
2022-11-30T14:40:31.813Z,74.11
2022-11-30T14:43:00.480Z,74.00
2022-11-30T14:45:29.491Z,74.65
2022-11-30T14:48:07.193Z,74.04
2022-11-30T14:50:36.210Z,74.45
2022-11-30T14:53:14.995Z,75.03
2022-11-30T14:55:50.297Z,74.57
2022-11-30T14:58:22.411Z,75.00
2022-11-30T15:00:51.187Z,75.08
2022-11-30T15:03:22.195Z,75.57
2022-11-30T15:05:52.135Z,74.63
2022-11-30T15:08:20.251Z,75.56
2022-11-30T15:10:48.451Z,75.94
2022-11-30T15:13:17.948Z,75.14
2022-11-30T15:15:52.727Z,74.40
2022-11-30T15:18:22.757Z,72.93
2022-11-30T15:20:52.475Z,73.04
2022-11-30T15:23:20.221Z,76.57
2022-11-30T15:25:48.545Z,76.20
2022-11-30T15:28:18.943Z,75.18
2022-11-30T15:30:47.918Z,75.18
2022-11-30T15:33:19.144Z,75.06
2022-11-30T15:36:15.964Z,74.79
2022-11-30T15:38:37.276Z,74.26
2022-11-30T15:41:05.817Z,73.13
2022-11-30T15:43:36.265Z,72.50
2022-11-30T15:46:04.040Z,71.69
2022-11-30T15:48:32.876Z,70.75
2022-11-30T15:51:02.166Z,71.35
2022-11-30T15:53:34.079Z,70.81
2022-11-30T15:56:03.961Z,71.43
2022-11-30T15:58:45.316Z,71.22
2022-11-30T16:01:15.168Z,71.16
2022-11-30T16:03:59.462Z,71.40
2022-11-30T16:06:28.993Z,71.73
2022-11-30T16:08:57.465Z,72.77
2022-11-30T16:11:25.215Z,73.03
2022-11-30T16:13:52.892Z,73.72
2022-11-30T16:16:21.859Z,76.22
2022-11-30T16:18:49.927Z,76.36
2022-11-30T16:21:19.001Z,77.27
2022-11-30T16:23:48.353Z,77.32
2022-11-30T16:26:51.990Z,75.39
2022-11-30T16:29:04.971Z,74.67
2022-11-30T16:31:32.719Z,75.02
2022-11-30T16:34:00.515Z,76.76
2022-11-30T16:36:30.042Z,75.70
2022-11-30T16:38:59.026Z,75.34
2022-11-30T16:41:27.642Z,75.46
2022-11-30T16:43:56.398Z,74.74
2022-11-30T16:46:25.235Z,76.37
2022-11-30T16:48:53.413Z,75.83
2022-11-30T16:51:22.870Z,76.18
2022-11-30T16:53:50.974Z,74.78
2022-11-30T16:56:20.072Z,74.46
2022-11-30T16:58:47.883Z,75.43
2022-11-30T17:01:17.166Z,75.17
2022-11-30T17:03:47.036Z,74.44
2022-11-30T17:06:17.056Z,75.85
2022-11-30T17:08:44.832Z,76.02
2022-11-30T17:11:17.336Z,75.55
2022-11-30T17:13:46.355Z,75.40
2022-11-30T17:16:14.773Z,75.72
2022-11-30T17:18:42.884Z,77.23
2022-11-30T17:21:14.380Z,76.21
2022-11-30T17:23:42.544Z,76.90
2022-11-30T17:26:10.596Z,76.62
2022-11-30T17:28:38.878Z,77.82
2022-11-30T17:31:09.728Z,77.90
2022-11-30T17:33:37.960Z,78.38
2022-11-30T17:36:06.749Z,76.42
2022-11-30T17:38:36.771Z,76.95
2022-11-30T17:41:05.262Z,76.33
2022-11-30T17:43:32.934Z,75.76
2022-11-30T17:46:05.012Z,74.98
2022-11-30T17:48:33.992Z,74.20
2022-11-30T17:51:02.237Z,73.92
2022-11-30T17:53:29.957Z,75.24
2022-11-30T17:56:04.177Z,74.47
2022-11-30T17:58:35.366Z,74.14
2022-11-30T18:01:04.746Z,74.32
2022-11-30T18:03:33.791Z,75.77
2022-11-30T18:06:02.357Z,74.83
2022-11-30T18:08:30.340Z,74.48
2022-11-30T18:10:58.070Z,74.87
2022-11-30T18:13:26.145Z,75.68
2022-11-30T18:15:53.831Z,76.33
2022-11-30T18:18:21.512Z,74.68
2022-11-30T18:20:50.556Z,78.20
2022-11-30T18:23:18.312Z,79.45
2022-11-30T18:25:46.030Z,77.16
2022-11-30T18:28:13.691Z,76.18
2022-11-30T18:30:41.530Z,75.99
2022-11-30T18:33:09.226Z,75.67
2022-11-30T18:35:36.903Z,74.07
2022-11-30T18:38:05.911Z,74.17
2022-11-30T18:40:33.622Z,74.17
2022-11-30T18:43:01.239Z,73.24
2022-11-30T18:45:29.340Z,77.54
2022-11-30T18:47:56.991Z,76.20
2022-11-30T18:50:24.647Z,75.96
2022-11-30T18:52:54.698Z,74.32
2022-11-30T18:55:23.731Z,74.58
2022-11-30T18:57:51.411Z,74.40
2022-11-30T19:00:19.389Z,74.17
2022-11-30T19:02:47.844Z,75.02
2022-11-30T19:05:31.546Z,75.33
2022-11-30T19:07:59.442Z,75.36
2022-11-30T19:10:28.534Z,75.38
2022-11-30T19:12:56.964Z,74.39
2022-11-30T19:15:24.682Z,74.76
2022-11-30T19:17:52.442Z,74.64
2022-11-30T19:20:20.138Z,74.15
2022-11-30T19:22:47.818Z,74.61
2022-11-30T19:25:18.875Z,75.09
2022-11-30T19:27:48.327Z,75.88
2022-11-30T19:30:16.256Z,75.61
2022-11-30T19:32:43.988Z,75.99
2022-11-30T19:35:11.671Z,76.08
2022-11-30T19:37:39.346Z,75.07
2022-11-30T19:40:07.653Z,74.45
2022-11-30T19:42:35.341Z,74.54
2022-11-30T19:45:04.690Z,74.46
2022-11-30T19:47:32.312Z,75.98
2022-11-30T19:49:59.951Z,75.50
2022-11-30T19:52:27.653Z,75.32
2022-11-30T19:54:55.294Z,75.06
2022-11-30T19:57:23.037Z,76.09
2022-11-30T19:59:50.720Z,78.27
2022-11-30T20:02:19.805Z,77.91
2022-11-30T20:04:47.717Z,75.46
2022-11-30T20:07:15.600Z,74.50
2022-11-30T20:09:43.279Z,74.77
2022-11-30T20:12:10.994Z,75.79
2022-11-30T20:14:38.604Z,77.91
2022-11-30T20:17:06.325Z,78.68
2022-11-30T20:19:35.312Z,76.83
2022-11-30T20:22:04.843Z,75.70
2022-11-30T20:24:32.491Z,75.39
2022-11-30T20:27:00.160Z,73.23
2022-11-30T20:29:27.792Z,73.95
2022-11-30T20:31:55.503Z,75.16
2022-11-30T20:34:23.802Z,75.03
2022-11-30T20:36:52.872Z,76.10
2022-11-30T20:39:20.502Z,76.31
2022-11-30T20:41:48.155Z,75.90
2022-11-30T20:44:16.768Z,76.33
2022-11-30T20:46:44.613Z,77.81
2022-11-30T20:49:14.201Z,77.75
2022-11-30T20:51:42.077Z,75.68
2022-11-30T20:54:12.634Z,74.14
2022-11-30T20:56:40.756Z,74.19
2022-11-30T20:59:09.112Z,72.89
2022-11-30T21:01:36.829Z,73.27
2022-11-30T21:04:05.024Z,74.85
2022-11-30T21:06:32.863Z,74.52
2022-11-30T21:09:00.712Z,73.96
2022-11-30T21:11:29.938Z,73.60
2022-11-30T21:13:58.270Z,74.17
2022-11-30T21:16:28.547Z,76.23
2022-11-30T21:18:57.345Z,75.80
2022-11-30T21:21:25.960Z,76.38
2022-11-30T21:23:53.686Z,74.87
2022-11-30T21:26:22.307Z,74.42
2022-11-30T21:28:53.180Z,73.91
2022-11-30T21:31:21.124Z,75.67
2022-11-30T21:33:53.087Z,74.52
2022-11-30T21:36:21.928Z,74.52
2022-11-30T21:38:53.662Z,73.77
2022-11-30T21:41:21.456Z,74.23
2022-11-30T21:43:49.110Z,75.13
2022-11-30T21:46:19.229Z,74.63
2022-11-30T21:48:48.307Z,73.47
2022-11-30T21:51:16.798Z,75.06
2022-11-30T21:53:45.460Z,74.50
2022-11-30T21:56:14.133Z,75.10
2022-11-30T21:58:42.936Z,76.20
2022-11-30T22:01:12.971Z,77.29
2022-11-30T22:03:42.116Z,77.32
2022-11-30T22:06:11.142Z,77.57
2022-11-30T22:08:38.782Z,76.03
2022-11-30T22:11:07.335Z,75.32
2022-11-30T22:13:35.546Z,75.23
2022-11-30T22:16:04.137Z,79.27
2022-11-30T22:18:31.981Z,76.96
2022-11-30T22:21:04.676Z,77.14
2022-11-30T22:23:32.680Z,78.43
2022-11-30T22:26:13.087Z,76.84
2022-11-30T22:28:41.642Z,76.31
2022-11-30T22:31:10.102Z,76.94
2022-11-30T22:33:38.759Z,77.38
2022-11-30T22:36:08.622Z,77.36
2022-11-30T22:38:36.303Z,76.55
2022-11-30T22:41:04.895Z,75.84
2022-11-30T22:43:32.552Z,74.49
2022-11-30T22:46:03.592Z,74.36
2022-11-30T22:48:31.297Z,75.18
2022-11-30T22:51:02.670Z,74.60
2022-11-30T22:53:31.811Z,76.38
2022-11-30T22:56:03.911Z,75.40
2022-11-30T22:58:31.708Z,75.98
2022-11-30T23:00:59.561Z,75.95
2022-11-30T23:03:27.991Z,75.52
2022-11-30T23:05:55.737Z,74.97
2022-11-30T23:08:23.441Z,74.42
2022-11-30T23:10:57.317Z,73.88
2022-11-30T23:13:25.027Z,74.67
2022-11-30T23:15:54.158Z,77.53
2022-11-30T23:18:21.886Z,76.67
2022-11-30T23:20:49.520Z,76.28
2022-11-30T23:23:17.157Z,76.05
2022-11-30T23:25:44.772Z,76.03
2022-11-30T23:28:13.759Z,76.17
2022-11-30T23:30:41.384Z,77.40
2022-11-30T23:33:10.279Z,76.60
2022-11-30T23:35:38.871Z,75.54
2022-11-30T23:38:06.518Z,74.33
2022-11-30T23:40:34.108Z,74.93
2022-11-30T23:43:01.735Z,78.69
2022-11-30T23:45:30.730Z,79.92
2022-11-30T23:47:58.394Z,77.96
2022-11-30T23:50:26.031Z,75.85
2022-11-30T23:52:53.663Z,75.96
2022-11-30T23:55:21.336Z,75.87
2022-11-30T23:57:49.125Z,75.43
